Time;durP1;ratioP1;P1;durP2;ratioP2;P2;SDS_P1;SDS_P2;PMS_P1;PMS_P2;Temp;Humidity;BMP_temperature;BMP_pressure;BME280_temperature;BME280_humidity;BME280_pressure;Samples;Min_cycle;Max_cycle;Signal;HPM_P1;HPM_P2
2024/01/06 00:00:09;;;;;;;5.72;3.53;;;;;;;;;;5013053;28;20139;-72
2024/01/06 00:02:35;;;;;;;6.13;4.30;;;;;;;;;;5011793;28;20097;-73
2024/01/06 00:05:02;;;;;;;5.95;4.10;;;11.80;92.30;;;;;;5012112;28;20052;-67
2024/01/06 00:07:28;;;;;;;5.55;3.25;;;;;;;;;;5012889;28;20400;-67
2024/01/06 00:09:54;;;;;;;6.75;4.35;;;11.80;93.00;;;;;;5011458;28;20052;-67
2024/01/06 00:12:20;;;;;;;7.03;4.18;;;11.80;93.10;;;;;;5012217;28;20128;-67
2024/01/06 00:14:45;;;;;;;6.63;4.68;;;11.70;93.10;;;;;;5026465;28;20125;-67
2024/01/06 00:17:12;;;;;;;6.38;4.13;;;13.00;92.20;;;;;;5010993;28;20111;-67
2024/01/06 00:19:38;;;;;;;6.07;4.00;;;;;;;;;;5044336;28;20054;-67
2024/01/06 00:22:04;;;;;;;6.60;4.07;;;;;;;;;;5043838;28;20042;-67
2024/01/06 00:24:30;;;;;;;5.53;3.17;;;;;;;;;;5010928;28;20074;-67
2024/01/06 00:26:56;;;;;;;6.50;3.75;;;;;;;;;;5044548;28;20048;-72
2024/01/06 00:29:22;;;;;;;5.88;4.22;;;;;;;;;;5044539;28;20101;-69
2024/01/06 00:31:48;;;;;;;6.43;3.70;;;;;;;;;;5043654;28;20116;-68
2024/01/06 00:34:15;;;;;;;6.32;3.63;;;;;;;;;;5011069;28;20050;-68
2024/01/06 00:36:41;;;;;;;5.88;3.78;;;;;;;;;;5044063;28;20061;-68
2024/01/06 00:39:08;;;;;;;6.43;3.70;;;;;;;;;;5027211;28;20471;-68
2024/01/06 00:41:34;;;;;;;6.00;4.20;;;;;;;;;;5044179;28;20049;-68
2024/01/06 00:44:00;;;;;;;5.97;3.85;;;11.90;93.10;;;;;;5043861;28;20048;-68
2024/01/06 00:46:25;;;;;;;6.28;3.72;;;11.90;93.30;;;;;;5026848;28;20053;-67
2024/01/06 00:48:51;;;;;;;6.70;3.70;;;;;;;;;;5010993;28;20048;-68
2024/01/06 00:51:18;;;;;;;6.30;3.28;;;;;;;;;;5011356;28;20181;-67
2024/01/06 00:53:44;;;;;;;5.32;3.35;;;;;;;;;;5014578;28;20058;-67
2024/01/06 00:56:10;;;;;;;4.97;3.65;;;;;;;;;;5030067;28;20128;-70
2024/01/06 00:58:36;;;;;;;6.10;3.40;;;;;;;;;;5014580;28;20192;-69
2024/01/06 01:01:02;;;;;;;4.95;3.05;;;11.90;93.20;;;;;;5014704;28;20579;-66
2024/01/06 01:03:27;;;;;;;6.05;4.40;;;11.90;92.90;;;;;;5014574;28;20058;-68
2024/01/06 01:05:54;;;;;;;5.90;3.58;;;;;;;;;;5013785;28;20042;-70
2024/01/06 01:08:20;;;;;;;6.40;3.58;;;;;;;;;;5014697;28;20369;-70
2024/01/06 01:10:46;;;;;;;5.20;3.90;;;;;;;;;;5047435;28;20057;-68
2024/01/06 01:13:12;;;;;;;6.50;3.97;;;11.80;92.80;;;;;;5014413;28;20129;-68
2024/01/06 01:15:38;;;;;;;6.53;4.07;;;;;;;;;;5014003;28;20145;-67
2024/01/06 01:18:04;;;;;;;5.32;4.03;;;;;;;;;;5014233;28;20132;-68
2024/01/06 01:20:30;;;;;;;6.75;4.15;;;;;;;;;;5014221;28;20403;-69
2024/01/06 01:22:56;;;;;;;5.60;4.13;;;;;;;;;;5014388;28;20496;-68
2024/01/06 01:25:22;;;;;;;6.28;3.58;;;;;;;;;;5014303;28;20046;-68
2024/01/06 01:27:48;;;;;;;6.22;3.70;;;;;;;;;;5013399;28;20124;-66
2024/01/06 01:30:16;;;;;;;6.38;4.53;;;;;;;;;;5046838;28;20089;-67
2024/01/06 01:32:42;;;;;;;5.80;4.43;;;;;;;;;;5030457;28;20115;-68
2024/01/06 01:35:08;;;;;;;5.97;3.72;;;11.70;93.10;;;;;;5046879;28;20504;-68
2024/01/06 01:37:34;;;;;;;5.95;3.35;;;11.70;93.10;;;;;;5046680;28;20111;-69
2024/01/06 01:40:00;;;;;;;7.22;3.53;;;;;;;;;;5029937;28;20055;-68
2024/01/06 01:42:26;;;;;;;6.10;4.45;;;;;;;;;;5046909;28;20057;-68
2024/01/06 01:44:52;;;;;;;5.90;4.47;;;;;;;;;;5046864;28;20061;-68
2024/01/06 01:47:18;;;;;;;6.07;4.60;;;;;;;;;;5046083;28;20057;-69
2024/01/06 01:49:46;;;;;;;7.13;4.80;;;11.60;91.60;;;;;;5047236;28;20088;-70
2024/01/06 01:52:13;;;;;;;7.43;5.35;;;;;;;;;;5046521;28;20057;-69
2024/01/06 01:54:39;;;;;;;6.68;3.75;;;;;;;;;;5030124;28;20057;-71
2024/01/06 01:57:05;;;;;;;5.53;3.58;;;;;;;;;;5029585;28;20053;-68
2024/01/06 01:59:31;;;;;;;7.25;3.42;;;;;;;;;;4996638;28;20060;-69
2024/01/06 02:01:57;;;;;;;6.28;4.75;;;;;;;;;;4997210;28;20048;-71
2024/01/06 02:04:23;;;;;;;6.40;4.50;;;;;;;;;;5013365;28;20132;-72
2024/01/06 02:06:49;;;;;;;5.65;4.03;;;;;;;;;;5013552;28;20391;-72
2024/01/06 02:09:16;;;;;;;5.95;4.43;;;;;;;;;;5012669;28;20125;-71
2024/01/06 02:11:42;;;;;;;6.07;3.63;;;;;;;;;;5014842;28;20137;-72
2024/01/06 02:14:08;;;;;;;6.07;3.50;;;;;;;;;;5014520;28;20491;-72
2024/01/06 02:16:34;;;;;;;7.85;4.63;;;;;;;;;;5029776;28;20081;-71
2024/01/06 02:19:00;;;;;;;5.57;4.00;;;;;;;;;;5046036;28;20054;-71
2024/01/06 02:21:26;;;;;;;5.70;4.22;;;;;;;;;;4997000;28;20045;-70
2024/01/06 02:23:52;;;;;;;6.55;4.30;;;;;;;;;;4996524;28;20140;-71
2024/01/06 02:26:18;;;;;;;6.88;4.10;;;11.50;92.50;;;;;;5046143;28;20053;-71
2024/01/06 02:28:47;;;;;;;5.88;3.50;;;11.90;92.80;;;;;;5029246;28;20049;-71
2024/01/06 02:31:13;;;;;;;6.55;3.60;;;11.70;92.70;;;;;;5012039;28;20042;-69
2024/01/06 02:33:39;;;;;;;6.10;3.40;;;11.60;92.80;;;;;;5012568;28;20119;-66
2024/01/06 02:36:05;;;;;;;6.55;3.65;;;11.70;92.80;;;;;;5045347;28;20443;-71
2024/01/06 02:38:31;;;;;;;6.05;3.67;;;11.60;92.80;;;;;;5046216;28;20408;-69
2024/01/06 02:40:57;;;;;;;5.97;3.38;;;;;;;;;;5029185;28;20061;-68
2024/01/06 02:43:23;;;;;;;5.50;3.17;;;;;;;;;;5046205;28;20137;-70
2024/01/06 02:45:49;;;;;;;6.82;4.22;;;;;;;;;;5012722;28;20056;-70
2024/01/06 02:48:16;;;;;;;6.75;3.90;;;11.70;91.10;;;;;;5028601;28;20045;-69
2024/01/06 02:50:42;;;;;;;5.53;3.17;;;;;;;;;;4995795;28;20037;-69
2024/01/06 02:53:09;;;;;;;5.53;4.13;;;;;;;;;;5012351;28;20054;-67
2024/01/06 02:55:35;;;;;;;6.35;3.50;;;11.60;92.80;;;;;;5045648;28;20045;-71
2024/01/06 02:58:01;;;;;;;5.70;4.38;;;11.30;92.20;;;;;;5045310;28;20057;-70
2024/01/06 03:00:26;;;;;;;6.03;3.92;;;11.80;92.60;;;;;;5045956;28;20042;-68
2024/01/06 03:02:53;;;;;;;6.18;4.00;;;;;;;;;;5013707;28;20044;-68
2024/01/06 03:05:19;;;;;;;5.80;4.20;;;;;;;;;;5045109;28;20441;-68
2024/01/06 03:07:44;;;;;;;6.45;4.20;;;11.70;92.50;;;;;;4996359;28;20403;-68
2024/01/06 03:10:10;;;;;;;5.75;4.40;;;11.50;92.40;;;;;;5013493;28;20128;-68
2024/01/06 03:12:37;;;;;;;6.50;4.50;;;;;;;;;;5013050;28;20050;-68
2024/01/06 03:15:03;;;;;;;6.13;4.50;;;11.50;92.40;;;;;;5011209;28;20091;-67
2024/01/06 03:17:29;;;;;;;7.15;3.30;;;;;;;;;;5028789;28;20061;-67
2024/01/06 03:19:55;;;;;;;5.57;3.20;;;11.40;92.70;;;;;;5012391;28;20037;-68
2024/01/06 03:22:21;;;;;;;5.82;3.80;;;11.60;92.40;;;;;;5044741;28;20099;-71
2024/01/06 03:24:46;;;;;;;6.05;3.50;;;11.70;92.70;;;;;;5044704;28;20050;-70
2024/01/06 03:27:12;;;;;;;6.78;3.42;;;;;;;;;;4995541;28;20124;-71
2024/01/06 03:29:38;;;;;;;5.80;4.18;;;;;;;;;;5013194;28;20454;-70
2024/01/06 03:32:05;;;;;;;6.40;3.42;;;;;;;;;;5012864;28;20500;-70
2024/01/06 03:34:31;;;;;;;5.53;4.22;;;11.60;92.40;;;;;;4992103;28;20042;-69
2024/01/06 03:36:56;;;;;;;5.72;3.67;;;11.50;92.40;;;;;;4993290;28;20070;-68
2024/01/06 03:39:22;;;;;;;6.45;3.30;;;11.50;92.70;;;;;;5021862;28;20132;-68
2024/01/06 03:41:48;;;;;;;5.43;3.60;;;11.60;92.50;;;;;;5028510;28;20049;-68
2024/01/06 03:44:14;;;;;;;6.32;3.75;;;;;;;;;;5011784;28;20511;-68
2024/01/06 03:46:41;;;;;;;6.00;3.78;;;;;;;;;;5012398;28;20052;-68
2024/01/06 03:49:06;;;;;;;4.97;3.20;;;11.80;92.70;;;;;;5044740;28;20050;-68
2024/01/06 03:51:32;;;;;;;6.70;3.55;;;11.60;92.60;;;;;;5012881;28;20109;-68
2024/01/06 03:53:58;;;;;;;5.22;3.33;;;11.50;92.30;;;;;;5044307;28;20037;-70
2024/01/06 03:56:23;;;;;;;6.60;4.28;;;11.40;92.30;;;;;;5027250;28;20480;-69
2024/01/06 03:58:49;;;;;;;5.72;3.03;;;11.30;92.60;;;;;;5011611;28;20068;-70
2024/01/06 04:01:15;;;;;;;5.50;3.05;;;;;;;;;;5013162;28;20181;-69
2024/01/06 04:03:42;;;;;;;5.22;3.03;;;;;;;;;;5011168;28;20049;-70
2024/01/06 04:06:08;;;;;;;6.32;3.38;;;;;;;;;;5043919;28;20045;-71
2024/01/06 04:08:34;;;;;;;5.35;3.55;;;;;;;;;;4994871;28;20057;-71
2024/01/06 04:11:00;;;;;;;5.55;3.70;;;;;;;;;;4979344;28;20081;-69
2024/01/06 04:13:26;;;;;;;5.75;3.83;;;;;;;;;;5044593;28;20064;-70
2024/01/06 04:15:52;;;;;;;4.85;3.65;;;;;;;;;;4995050;28;20385;-70
2024/01/06 04:18:18;;;;;;;6.63;4.10;;;;;;;;;;5011053;28;20104;-69
2024/01/06 04:20:44;;;;;;;5.97;3.85;;;;;;;;;;4991817;28;20460;-67
2024/01/06 04:23:11;;;;;;;5.50;3.80;;;;;;;;;;5008085;28;20089;-69
2024/01/06 04:25:37;;;;;;;6.60;4.00;;;;;;;;;;4993857;28;20050;-68
2024/01/06 04:28:03;;;;;;;4.93;2.95;;;;;;;;;;5042661;28;20121;-70
2024/01/06 04:30:29;;;;;;;5.22;3.60;;;;;;;;;;5015856;28;20057;-70
2024/01/06 04:32:57;;;;;;;6.35;2.92;;;;;;;;;;5016643;28;20466;-71
2024/01/06 04:35:23;;;;;;;5.70;3.22;;;;;;;;;;5015422;28;20427;-70
2024/01/06 04:37:49;;;;;;;6.55;4.15;;;;;;;;;;5014490;28;20053;-71
2024/01/06 04:40:15;;;;;;;6.07;4.40;;;;;;;;;;5031541;28;20046;-71
2024/01/06 04:42:41;;;;;;;4.88;3.47;;;;;;;;;;5048277;28;20042;-71
2024/01/06 04:45:08;;;;;;;5.05;2.95;;;;;;;;;;5047492;28;20543;-71
2024/01/06 04:47:34;;;;;;;6.28;3.10;;;;;;;;;;5014603;28;20128;-72
2024/01/06 04:50:01;;;;;;;6.22;4.07;;;;;;;;;;5016451;28;20475;-71
2024/01/06 04:52:27;;;;;;;5.80;4.00;;;;;;;;;;5014839;28;20056;-71
2024/01/06 04:54:53;;;;;;;5.70;3.72;;;;;;;;;;5015099;28;20050;-72
2024/01/06 04:57:20;;;;;;;6.00;4.05;;;11.50;90.70;;;;;;5014491;28;20534;-71
2024/01/06 04:59:46;;;;;;;5.90;3.72;;;;;;;;;;5014682;28;20125;-71
2024/01/06 05:02:12;;;;;;;6.70;4.05;;;;;;;;;;4994920;28;20054;-71
2024/01/06 05:04:38;;;;;;;5.63;3.50;;;;;;;;;;5006593;28;20126;-72
2024/01/06 05:07:04;;;;;;;6.10;3.78;;;;;;;;;;5015807;28;20469;-68
2024/01/06 05:09:31;;;;;;;7.10;3.80;;;;;;;;;;5014152;28;20139;-68
2024/01/06 05:11:57;;;;;;;5.40;2.90;;;;;;;;;;5047395;28;20214;-68
2024/01/06 05:14:23;;;;;;;5.43;3.00;;;;;;;;;;5014547;28;20096;-68
2024/01/06 05:16:49;;;;;;;6.70;3.58;;;;;;;;;;5015524;28;20041;-68
2024/01/06 05:19:19;;;;;;;6.30;3.20;;;;;;;;;;5047457;28;20053;-68
2024/01/06 05:21:48;;;;;;;5.85;3.42;;;11.40;90.80;;;;;;5030307;28;20057;-68
2024/01/06 05:24:14;;;;;;;5.10;2.65;;;11.50;91.00;;;;;;5030366;28;20053;-68
2024/01/06 05:26:40;;;;;;;5.53;3.80;;;11.40;92.20;;;;;;4997499;28;20049;-70
2024/01/06 05:29:06;;;;;;;6.13;3.55;;;11.30;92.10;;;;;;5047322;28;20069;-71
2024/01/06 05:31:32;;;;;;;6.70;3.45;;;;;;;;;;5047146;28;20054;-67
2024/01/06 05:33:59;;;;;;;5.65;3.58;;;11.40;92.10;;;;;;5030042;28;20050;-71
2024/01/06 05:36:25;;;;;;;6.40;2.92;;;;;;;;;;4985075;28;20076;-69
2024/01/06 05:38:51;;;;;;;5.82;3.20;;;11.30;92.30;;;;;;5043039;28;20084;-70
2024/01/06 05:41:17;;;;;;;4.80;2.58;;;11.40;92.40;;;;;;5013976;28;20439;-68
2024/01/06 05:43:43;;;;;;;5.57;2.95;;;;;;;;;;5013892;28;20046;-68
2024/01/06 05:46:10;;;;;;;5.20;3.38;;;;;;;;;;5013720;28;20099;-68
2024/01/06 05:48:36;;;;;;;5.55;3.60;;;;;;;;;;5029694;28;20052;-68
2024/01/06 05:51:05;;;;;;;7.13;4.10;;;11.40;91.10;;;;;;4997461;28;20076;-68
2024/01/06 05:53:31;;;;;;;6.05;2.92;;;;;;;;;;5014020;28;20054;-68
2024/01/06 05:55:58;;;;;;;4.28;2.40;;;;;;;;;;4997158;28;20042;-68
2024/01/06 05:58:24;;;;;;;5.40;3.78;;;;;;;;;;5046182;28;20176;-69
2024/01/06 06:00:50;;;;;;;5.43;2.90;;;;;;;;;;5013623;28;20042;-71
2024/01/06 06:03:16;;;;;;;6.90;2.95;;;11.50;92.40;;;;;;5013823;28;20054;-70
2024/01/06 06:05:42;;;;;;;5.68;2.88;;;11.20;92.30;;;;;;5030087;28;20502;-70
2024/01/06 06:08:08;;;;;;;5.15;3.63;;;11.40;92.10;;;;;;5046578;28;20522;-70
2024/01/06 06:10:41;;;;;;;5.40;3.65;;;11.50;92.10;;;;;;5029878;28;20131;-68
2024/01/06 06:13:09;;;;;;;;;;;11.50;91.20;;;;;;5046528;28;20057;-68
2024/01/06 06:15:35;;;;;;;5.53;3.55;;;11.50;92.10;;;;;;5014620;28;19921;-68
2024/01/06 06:18:01;;;;;;;5.63;3.58;;;;;;;;;;5045164;28;20045;-70
2024/01/06 06:20:27;;;;;;;5.32;2.85;;;11.40;92.40;;;;;;5046577;28;20153;-71
2024/01/06 06:22:53;;;;;;;5.35;2.42;;;;;;;;;;5045980;28;20081;-69
2024/01/06 06:25:19;;;;;;;5.15;3.47;;;;;;;;;;5014276;28;20046;-71
2024/01/06 06:27:45;;;;;;;5.43;2.80;;;;;;;;;;5046464;28;20463;-70
2024/01/06 06:30:12;;;;;;;5.13;2.60;;;;;;;;;;5046150;28;20042;-70
2024/01/06 06:32:38;;;;;;;5.30;2.67;;;11.60;92.30;;;;;;5029226;28;20515;-69
2024/01/06 06:35:04;;;;;;;6.38;3.05;;;11.60;92.40;;;;;;5045746;28;20046;-68
2024/01/06 06:37:30;;;;;;;5.85;3.33;;;;;;;;;;5044365;28;20408;-71
2024/01/06 06:39:56;;;;;;;5.65;2.88;;;11.60;92.40;;;;;;5013210;28;20125;-71
2024/01/06 06:42:21;;;;;;;5.90;2.83;;;11.40;92.40;;;;;;5013162;28;20129;-68
2024/01/06 06:44:48;;;;;;;4.80;3.08;;;;;;;;;;5013642;28;20453;-68
2024/01/06 06:47:14;;;;;;;4.63;2.50;;;;;;;;;;5045690;28;20128;-68
2024/01/06 06:49:41;;;;;;;5.03;2.72;;;;;;;;;;5044936;28;20046;-67
2024/01/06 06:52:07;;;;;;;4.85;2.83;;;;;;;;;;5012674;28;20660;-68
2024/01/06 06:54:33;;;;;;;5.55;2.70;;;;;;;;;;5012643;28;20081;-68
2024/01/06 06:56:59;;;;;;;4.95;3.30;;;11.40;92.10;;;;;;5011975;28;20085;-71
2024/01/06 06:59:25;;;;;;;4.97;3.42;;;11.20;92.00;;;;;;5012236;28;20096;-71
2024/01/06 07:01:50;;;;;;;5.35;3.20;;;11.50;92.10;;;;;;5028648;28;20038;-69
2024/01/06 07:04:16;;;;;;;5.18;3.53;;;;;;;;;;5012123;28;20050;-71
2024/01/06 07:06:42;;;;;;;4.72;2.75;;;;;;;;;;5012013;28;20054;-69
2024/01/06 07:09:09;;;;;;;5.80;2.88;;;;;;;;;;5045132;28;20053;-70
2024/01/06 07:11:35;;;;;;;4.88;2.80;;;;;;;;;;5045424;28;20404;-69
2024/01/06 07:14:01;;;;;;;5.88;2.70;;;;;;;;;;5013025;28;20503;-70
2024/01/06 07:16:27;;;;;;;5.38;3.47;;;;;;;;;;5027861;28;20045;-70
2024/01/06 07:18:53;;;;;;;5.90;3.33;;;;;;;;;;5028526;28;20050;-69
2024/01/06 07:21:19;;;;;;;5.25;2.75;;;;;;;;;;5028228;28;20068;-70
2024/01/06 07:23:46;;;;;;;5.30;2.65;;;;;;;;;;5012972;28;20500;-69
2024/01/06 07:26:11;;;;;;;5.55;3.05;;;11.50;92.30;;;;;;5013330;28;20092;-71
2024/01/06 07:28:37;;;;;;;5.05;2.72;;;11.40;92.20;;;;;;5012548;28;20046;-70
2024/01/06 07:31:04;;;;;;;4.95;2.67;;;11.40;92.20;;;;;;5045171;28;20096;-71
2024/01/06 07:33:30;;;;;;;5.00;3.10;;;;;;;;;;5044973;28;20062;-71
2024/01/06 07:35:56;;;;;;;5.65;3.28;;;11.30;92.20;;;;;;5028385;28;20081;-70
2024/01/06 07:38:22;;;;;;;5.10;2.70;;;11.30;92.20;;;;;;5027369;28;20054;-70
2024/01/06 07:40:48;;;;;;;6.35;3.03;;;;;;;;;;5011902;28;20413;-68
2024/01/06 07:43:15;;;;;;;5.50;3.00;;;;;;;;;;5011872;28;20128;-67
2024/01/06 07:45:41;;;;;;;5.30;3.50;;;;;;;;;;5011852;28;20054;-68
2024/01/06 07:48:07;;;;;;;5.70;3.92;;;;;;;;;;5010639;28;20049;-68
2024/01/06 07:50:33;;;;;;;6.10;3.65;;;;;;;;;;5043932;28;20149;-68
2024/01/06 07:53:00;;;;;;;5.63;3.13;;;;;;;;;;5012025;28;20196;-68
2024/01/06 07:55:28;;;;;;;5.32;3.38;;;;;;;;;;5011166;28;20056;-69
2024/01/06 07:57:54;;;;;;;5.55;3.22;;;11.20;92.10;;;;;;5052138;28;20052;-67
2024/01/06 08:00:20;;;;;;;5.65;3.80;;;;;;;;;;5031327;28;20053;-67
2024/01/06 08:02:46;;;;;;;5.22;3.47;;;11.20;92.00;;;;;;4998641;28;20499;-68
2024/01/06 08:05:12;;;;;;;5.50;3.45;;;11.30;92.00;;;;;;5032839;28;20121;-66
2024/01/06 08:07:38;;;;;;;6.57;3.00;;;;;;;;;;5027317;28;20073;-67
2024/01/06 08:10:05;;;;;;;5.55;3.67;;;11.10;92.00;;;;;;5012779;28;20042;-69
2024/01/06 08:12:31;;;;;;;6.28;3.20;;;;;;;;;;5027742;28;20049;-67
2024/01/06 08:14:57;;;;;;;5.43;3.50;;;;;;;;;;5013100;28;20046;-69
2024/01/06 08:17:23;;;;;;;6.82;3.95;;;11.20;91.90;;;;;;5012674;28;20104;-68
2024/01/06 08:19:49;;;;;;;7.25;3.10;;;;;;;;;;5043693;28;20045;-70
2024/01/06 08:22:15;;;;;;;6.32;3.40;;;;;;;;;;5011015;28;20062;-68
2024/01/06 08:24:41;;;;;;;7.18;3.30;;;;;;;;;;5027638;28;20042;-68
2024/01/06 08:27:07;;;;;;;5.30;3.00;;;;;;;;;;5027439;28;20065;-69
2024/01/06 08:29:34;;;;;;;5.80;3.30;;;;;;;;;;4991606;28;20050;-68
2024/01/06 08:32:00;;;;;;;6.70;3.22;;;;;;;;;;5024499;28;20097;-69
2024/01/06 08:34:27;;;;;;;7.55;3.33;;;11.20;92.20;;;;;;5043636;28;20431;-69
2024/01/06 08:36:53;;;;;;;5.75;3.42;;;;;;;;;;5008375;28;20062;-69
2024/01/06 08:39:19;;;;;;;5.35;3.40;;;11.60;92.20;;;;;;5012227;28;20050;-69
2024/01/06 08:41:46;;;;;;;6.97;3.80;;;;;;;;;;5044227;28;20046;-68
2024/01/06 08:44:12;;;;;;;6.18;3.30;;;;;;;;;;5013178;28;20050;-69
2024/01/06 08:46:38;;;;;;;5.95;3.35;;;11.60;91.60;;;;;;5037626;28;20045;-67
2024/01/06 08:49:04;;;;;;;7.65;3.75;;;;;;;;;;5017407;28;20549;-69
2024/01/06 08:51:30;;;;;;;5.60;3.22;;;;;;;;;;5014865;28;20050;-71
2024/01/06 08:53:57;;;;;;;6.53;3.72;;;;;;;;;;5043730;28;20120;-68
2024/01/06 08:56:23;;;;;;;7.05;3.90;;;;;;;;;;5027320;28;20137;-67
2024/01/06 08:58:49;;;;;;;6.13;3.45;;;;;;;;;;5043721;28;20041;-71
2024/01/06 09:01:15;;;;;;;6.78;3.97;;;;;;;;;;5010538;28;20057;-70
2024/01/06 09:03:41;;;;;;;6.45;4.50;;;11.30;92.00;;;;;;5010797;28;20140;-67
2024/01/06 09:06:07;;;;;;;6.50;4.78;;;;;;;;;;5010737;28;20479;-72
2024/01/06 09:08:33;;;;;;;7.28;4.80;;;;;;;;;;5011267;28;20096;-67
2024/01/06 09:10:59;;;;;;;7.07;5.05;;;;;;;;;;5009795;28;20389;-68
2024/01/06 09:13:25;;;;;;;7.53;4.75;;;11.10;91.80;;;;;;5013266;28;20052;-68
2024/01/06 09:15:51;;;;;;;7.35;4.90;;;11.20;91.90;;;;;;4998378;28;20481;-70
2024/01/06 09:18:17;;;;;;;6.35;3.83;;;11.10;92.10;;;;;;5030762;28;20058;-68
2024/01/06 09:20:44;;;;;;;8.02;3.50;;;;;;;;;;5047177;28;20053;-69
2024/01/06 09:23:12;;;;;;;7.38;5.15;;;;;;;;;;5014965;28;20365;-71
2024/01/06 09:25:39;;;;;;;6.95;4.03;;;11.20;92.10;;;;;;5045055;28;20484;-69
2024/01/06 09:28:05;;;;;;;8.32;5.35;;;11.40;91.90;;;;;;5015484;28;20046;-68
2024/01/06 09:30:32;;;;;;;7.55;5.05;;;;;;;;;;5014018;28;20042;-69
2024/01/06 09:32:58;;;;;;;7.50;4.50;;;;;;;;;;5014190;28;20057;-69
2024/01/06 09:35:24;;;;;;;6.93;3.78;;;;;;;;;;5014947;28;20057;-74
2024/01/06 09:37:50;;;;;;;7.63;4.32;;;;;;;;;;5013312;28;20057;-69
2024/01/06 09:40:23;;;;;;;7.40;5.18;;;11.00;90.80;;;;;;5014492;28;20112;-71
2024/01/06 09:42:50;;;;;;;7.40;5.43;;;;;;;;;;4987598;28;20041;-72
2024/01/06 09:45:16;;;;;;;7.63;4.57;;;;;;;;;;5004747;28;20085;-71
2024/01/06 09:47:42;;;;;;;7.70;4.45;;;;;;;;;;4993853;28;20084;-73
2024/01/06 09:50:09;;;;;;;7.40;4.05;;;11.00;92.10;;;;;;5013295;28;20038;-68
2024/01/06 09:52:41;;;;;;;6.90;4.25;;;11.20;90.80;;;;;;4997260;28;20929;-71
2024/01/06 09:55:09;;;;;;;7.22;4.40;;;11.40;92.20;;;;;;5013873;28;20049;-73
2024/01/06 09:57:36;;;;;;;7.57;4.55;;;;;;;;;;5028987;28;20492;-72
2024/01/06 10:00:04;;;;;;;8.02;5.72;;;;;;;;;;5029987;28;20046;-73
2024/01/06 10:02:33;;;;;;;10.27;5.00;;;;;;;;;;5025772;28;20129;-73
2024/01/06 10:04:58;;;;;;;7.78;4.30;;;11.00;92.10;;;;;;5020751;28;20047;-72
2024/01/06 10:07:26;;;;;;;7.80;4.63;;;;;;;;;;5011724;28;20146;-71
2024/01/06 10:09:54;;;;;;;6.88;4.43;;;11.00;90.80;;;;;;5011786;28;20052;-72
2024/01/06 10:12:27;;;;;;;7.20;4.43;;;;;;;;;;5031250;28;20041;-72
2024/01/06 10:14:54;;;;;;;8.25;4.97;;;;;;;;;;5013295;28;20399;-70
2024/01/06 10:17:20;;;;;;;8.70;5.25;;;10.70;92.20;;;;;;5029677;28;20053;-73
2024/01/06 10:19:48;;;;;;;6.88;4.20;;;;;;;;;;5046432;28;20089;-72
2024/01/06 10:22:14;;;;;;;7.85;4.70;;;;;;;;;;5029889;28;20061;-71
2024/01/06 10:24:40;;;;;;;7.93;4.90;;;;;;;;;;5015814;28;20100;-70
2024/01/06 10:27:06;;;;;;;8.40;4.53;;;10.80;92.40;;;;;;5045800;28;20046;-72
2024/01/06 10:29:32;;;;;;;8.57;5.28;;;10.90;91.00;;;;;;5028773;28;20177;-70
2024/01/06 10:31:58;;;;;;;7.50;5.90;;;;;;;;;;4996404;28;20137;-72
2024/01/06 10:34:25;;;;;;;7.53;4.75;;;;;;;;;;4995380;28;20061;-72
2024/01/06 10:36:54;;;;;;;7.32;4.30;;;10.90;92.40;;;;;;5026837;28;20092;-70
2024/01/06 10:39:20;;;;;;;14.07;5.45;;;;;;;;;;5011427;28;20109;-66
2024/01/06 10:41:46;;;;;;;16.35;5.47;;;;;;;;;;5010431;28;20048;-75
2024/01/06 10:44:13;;;;;;;19.38;7.78;;;;;;;;;;5012563;28;20045;-74
2024/01/06 10:46:39;;;;;;;16.65;5.63;;;;;;;;;;4996045;28;20500;-73
2024/01/06 10:49:10;;;;;;;14.50;5.63;;;10.60;92.10;;;;;;5028855;28;20069;-75
2024/01/06 10:51:40;;;;;;;13.20;5.45;;;;;;;;;;5011864;28;20496;-74
2024/01/06 10:54:06;;;;;;;14.68;6.07;;;;;;;;;;5028890;28;20054;-72
2024/01/06 10:56:34;;;;;;;12.55;5.70;;;;;;;;;;5045207;28;20042;-69
2024/01/06 10:59:00;;;;;;;11.30;6.10;;;10.90;92.20;;;;;;4996715;28;20435;-69
2024/01/06 11:01:26;;;;;;;11.90;5.38;;;10.50;92.10;;;;;;4980101;28;20041;-69
2024/01/06 11:03:52;;;;;;;11.93;5.75;;;;;;;;;;4995726;28;20447;-66
2024/01/06 11:06:18;;;;;;;11.35;5.45;;;;;;;;;;5027663;28;20042;-71
2024/01/06 11:08:49;;;;;;;10.40;5.85;;;11.00;92.30;;;;;;5043866;28;20531;-69
2024/01/06 11:11:19;;;;;;;12.40;6.50;;;10.90;90.90;;;;;;5028648;28;20119;-68
2024/01/06 11:13:46;;;;;;;15.50;7.40;;;;;;;;;;5011820;28;20100;-68
2024/01/06 11:16:14;;;;;;;11.65;5.50;;;;;;;;;;5045285;28;20447;-67
2024/01/06 11:18:41;;;;;;;10.45;5.45;;;;;;;;;;4995412;28;20124;-65
2024/01/06 11:21:24;;;;;;;12.13;5.50;;;;;;;;;;5012408;28;20042;-67
2024/01/06 11:24:10;;;;;;;11.23;5.78;;;;;;;;;;5043620;28;20045;-69
2024/01/06 11:26:40;;;;;;;18.63;6.15;;;;;;;;;;5010916;28;20049;-73
2024/01/06 11:29:06;;;;;;;12.60;6.10;;;11.20;92.20;;;;;;5027872;28;20046;-71
2024/01/06 11:31:32;;;;;;;13.05;5.57;;;;;;;;;;5027682;28;20053;-70
2024/01/06 11:34:12;;;;;;;11.82;5.35;;;11.30;90.90;;;;;;5044885;28;20488;-70
2024/01/06 11:36:39;;;;;;;11.43;5.47;;;;;;;;;;5027348;28;20053;-70
2024/01/06 11:39:05;;;;;;;19.85;7.05;;;11.10;90.80;;;;;;5045213;28;20064;-71
2024/01/06 11:41:50;;;;;;;10.18;5.13;;;;;;;;;;5011092;28;20399;-73
2024/01/06 11:44:21;;;;;;;9.68;5.25;;;;;;;;;;5027759;28;20045;-71
2024/01/06 11:46:48;;;;;;;10.57;5.40;;;11.10;90.70;;;;;;5019859;28;20053;-71
2024/01/06 11:49:18;;;;;;;14.48;6.53;;;11.10;90.20;;;;;;5003782;28;20050;-71
2024/01/06 11:51:45;;;;;;;13.55;4.50;;;;;;;;;;4987783;28;20050;-68
2024/01/06 11:54:12;;;;;;;7.90;4.53;;;;;;;;;;5010710;28;20096;-66
2024/01/06 11:56:38;;;;;;;11.10;5.20;;;11.10;92.10;;;;;;4995394;28;20054;-70
2024/01/06 11:59:04;;;;;;;11.38;4.68;;;;;;;;;;4994753;28;20034;-71
2024/01/06 12:01:49;;;;;;;10.27;5.05;;;;;;;;;;5011607;28;20403;-67
2024/01/06 12:04:15;;;;;;;10.93;5.15;;;;;;;;;;5016311;28;20042;-72
2024/01/06 12:06:41;;;;;;;9.63;5.20;;;;;;;;;;4998244;28;20043;-72
2024/01/06 12:09:08;;;;;;;10.55;4.40;;;;;;;;;;5032112;28;20054;-71
2024/01/06 12:11:34;;;;;;;9.15;5.38;;;;;;;;;;5001714;28;20069;-71
2024/01/06 12:14:00;;;;;;;8.63;5.97;;;11.00;91.90;;;;;;5034248;28;20392;-70
2024/01/06 12:16:28;;;;;;;10.50;5.28;;;11.10;92.20;;;;;;4992394;28;20056;-72
2024/01/06 12:18:55;;;;;;;10.45;4.70;;;11.00;90.60;;;;;;4979279;28;20070;-72
2024/01/06 12:21:24;;;;;;;9.50;4.72;;;10.70;90.10;;;;;;5010955;28;20092;-70
2024/01/06 12:23:50;;;;;;;8.50;4.50;;;;;;;;;;5011683;28;20046;-71
2024/01/06 12:26:19;;;;;;;8.75;4.60;;;10.90;90.20;;;;;;5019919;28;20412;-72
2024/01/06 12:28:46;;;;;;;8.57;4.43;;;;;;;;;;4991363;28;20046;-70
2024/01/06 12:31:12;;;;;;;7.60;4.53;;;;;;;;;;5010583;28;20092;-70
2024/01/06 12:33:42;;;;;;;7.80;4.53;;;10.70;91.00;;;;;;5007760;28;20060;-67
2024/01/06 12:36:08;;;;;;;9.00;5.03;;;10.80;92.10;;;;;;5004590;28;20050;-68
2024/01/06 12:38:35;;;;;;;8.02;4.40;;;11.00;92.30;;;;;;5005624;28;20112;-68
2024/01/06 12:41:01;;;;;;;9.48;4.93;;;;;;;;;;5010618;28;20041;-72
2024/01/06 12:43:27;;;;;;;8.68;4.88;;;;;;;;;;5023459;28;20081;-73
2024/01/06 12:45:54;;;;;;;11.98;5.22;;;;;;;;;;5007582;28;20053;-69
2024/01/06 12:48:20;;;;;;;8.57;4.75;;;;;;;;;;5045249;28;20052;-70
2024/01/06 12:50:46;;;;;;;9.70;5.30;;;;;;;;;;5027509;28;20049;-71
2024/01/06 12:53:12;;;;;;;13.77;5.43;;;;;;;;;;5031614;28;20227;-70
2024/01/06 12:55:39;;;;;;;9.75;4.65;;;;;;;;;;5029129;28;20042;-71
2024/01/06 12:58:05;;;;;;;9.48;5.97;;;;;;;;;;5030137;28;20057;-72
2024/01/06 13:00:31;;;;;;;10.00;5.68;;;10.80;92.10;;;;;;5010889;28;20428;-70
2024/01/06 13:02:57;;;;;;;11.15;6.05;;;10.90;92.10;;;;;;5014078;28;20049;-71
2024/01/06 13:05:24;;;;;;;10.10;4.53;;;;;;;;;;5015055;28;20057;-71
2024/01/06 13:07:49;;;;;;;7.13;4.50;;;11.20;92.50;;;;;;5013704;28;20116;-69
2024/01/06 13:10:15;;;;;;;8.77;4.97;;;10.90;92.40;;;;;;4997568;28;20480;-71
2024/01/06 13:12:41;;;;;;;9.55;5.47;;;11.00;92.40;;;;;;5009875;28;20076;-72
2024/01/06 13:15:11;;;;;;;11.77;4.57;;;10.80;92.40;;;;;;4998237;28;20516;-70
2024/01/06 13:17:37;;;;;;;8.07;4.82;;;10.90;92.50;;;;;;5046614;28;20111;-71
2024/01/06 13:20:04;;;;;;;7.90;5.38;;;;;;;;;;5030188;28;20050;-72
2024/01/06 13:22:30;;;;;;;8.13;4.90;;;;;;;;;;5027723;28;20448;-72
2024/01/06 13:24:56;;;;;;;7.65;4.68;;;;;;;;;;5045527;28;20076;-71
2024/01/06 13:27:23;;;;;;;10.23;5.15;;;;;;;;;;5028799;28;20042;-71
2024/01/06 13:29:49;;;;;;;10.65;5.78;;;;;;;;;;4982116;28;20057;-71
2024/01/06 13:32:15;;;;;;;11.82;8.65;;;10.70;92.30;;;;;;5013129;28;20077;-71
2024/01/06 13:34:42;;;;;;;9.95;5.95;;;;;;;;;;5014187;28;20046;-71
2024/01/06 13:37:08;;;;;;;10.65;6.25;;;11.10;92.90;;;;;;5025843;28;20050;-70
2024/01/06 13:39:34;;;;;;;11.40;5.55;;;;;;;;;;4997740;28;20054;-72
2024/01/06 13:42:00;;;;;;;11.65;5.07;;;;;;;;;;5007730;28;20056;-68
2024/01/06 13:44:26;;;;;;;10.85;6.45;;;;;;;;;;5023595;28;20042;-68
2024/01/06 13:46:54;;;;;;;8.32;5.00;;;;;;;;;;5011825;28;20072;-68
2024/01/06 13:49:21;;;;;;;8.30;4.43;;;10.70;91.10;;;;;;5005724;28;20037;-69
2024/01/06 13:51:47;;;;;;;10.55;4.75;;;10.60;92.50;;;;;;5043130;28;20060;-73